sensor_id;sensor_type;location;lat;lon;timestamp;pressure;altitude;pressure_sealevel;temperature;humidity
50933;BME280;36921;49.006;9.292;2022-09-12T00:01:22;98887.63;;;10.73;100.00
50933;BME280;36921;49.006;9.292;2022-09-12T00:03:54;98897.25;;;10.83;100.00
50933;BME280;36921;49.006;9.292;2022-09-12T00:06:24;98879.28;;;10.68;100.00
50933;BME280;36921;49.006;9.292;2022-09-12T00:08:52;98892.72;;;10.90;100.00
50933;BME280;36921;49.006;9.292;2022-09-12T00:11:18;98879.56;;;10.80;100.00
50933;BME280;36921;49.006;9.292;2022-09-12T00:13:43;98860.34;;;10.68;100.00
50933;BME280;36921;49.006;9.292;2022-09-12T00:16:20;98883.47;;;10.71;100.00
50933;BME280;36921;49.006;9.292;2022-09-12T00:18:46;98874.47;;;10.57;100.00
50933;BME280;36921;49.006;9.292;2022-09-12T00:21:13;98879.94;;;10.70;100.00
50933;BME280;36921;49.006;9.292;2022-09-12T00:23:38;98877.63;;;10.74;100.00
50933;BME280;36921;49.006;9.292;2022-09-12T00:26:05;98878.44;;;10.61;100.00
50933;BME280;36921;49.006;9.292;2022-09-12T00:28:32;98874.22;;;10.52;100.00
50933;BME280;36921;49.006;9.292;2022-09-12T00:30:58;98881.47;;;10.45;100.00
50933;BME280;36921;49.006;9.292;2022-09-12T00:33:23;98862.28;;;10.33;100.00
50933;BME280;36921;49.006;9.292;2022-09-12T00:35:50;98880.47;;;10.46;100.00
50933;BME280;36921;49.006;9.292;2022-09-12T00:38:19;98882.53;;;10.44;100.00
50933;BME280;36921;49.006;9.292;2022-09-12T00:40:45;98882.53;;;10.44;100.00
50933;BME280;36921;49.006;9.292;2022-09-12T00:43:34;98877.13;;;10.44;100.00
50933;BME280;36921;49.006;9.292;2022-09-12T00:49:24;98881.25;;;10.40;100.00
50933;BME280;36921;49.006;9.292;2022-09-12T00:52:00;98873.75;;;10.35;100.00
50933;BME280;36921;49.006;9.292;2022-09-12T00:54:31;98864.09;;;10.26;100.00
50933;BME280;36921;49.006;9.292;2022-09-12T00:57:00;98868.03;;;10.23;100.00
50933;BME280;36921;49.006;9.292;2022-09-12T00:59:31;98864.34;;;10.31;100.00
50933;BME280;36921;49.006;9.292;2022-09-12T01:01:58;98860.00;;;10.37;100.00
50933;BME280;36921;49.006;9.292;2022-09-12T01:04:25;98859.59;;;10.40;100.00
50933;BME280;36921;49.006;9.292;2022-09-12T01:06:53;98835.59;;;10.23;100.00
50933;BME280;36921;49.006;9.292;2022-09-12T01:09:21;98861.22;;;10.27;100.00
50933;BME280;36921;49.006;9.292;2022-09-12T01:11:48;98852.84;;;10.22;100.00
50933;BME280;36921;49.006;9.292;2022-09-12T01:14:16;98835.28;;;10.05;100.00
50933;BME280;36921;49.006;9.292;2022-09-12T01:16:42;98853.16;;;10.06;100.00
50933;BME280;36921;49.006;9.292;2022-09-12T01:27:39;98851.16;;;9.86;100.00
50933;BME280;36921;49.006;9.292;2022-09-12T01:30:21;98850.19;;;9.94;100.00
50933;BME280;36921;49.006;9.292;2022-09-12T01:38:25;98838.47;;;9.80;100.00
50933;BME280;36921;49.006;9.292;2022-09-12T01:41:17;98834.63;;;9.68;100.00
50933;BME280;36921;49.006;9.292;2022-09-12T01:46:24;98843.13;;;9.65;100.00
50933;BME280;36921;49.006;9.292;2022-09-12T01:48:58;98843.94;;;9.65;100.00
50933;BME280;36921;49.006;9.292;2022-09-12T01:51:31;98837.75;;;9.72;100.00
50933;BME280;36921;49.006;9.292;2022-09-12T01:54:07;98841.06;;;9.67;100.00
50933;BME280;36921;49.006;9.292;2022-09-12T01:56:35;98841.69;;;9.69;100.00
50933;BME280;36921;49.006;9.292;2022-09-12T01:59:04;98842.53;;;9.70;100.00
50933;BME280;36921;49.006;9.292;2022-09-12T02:01:32;98843.38;;;9.70;100.00
50933;BME280;36921;49.006;9.292;2022-09-12T02:04:17;98839.13;;;9.61;100.00
50933;BME280;36921;49.006;9.292;2022-09-12T02:06:51;98818.06;;;9.50;100.00
50933;BME280;36921;49.006;9.292;2022-09-12T02:09:30;98836.44;;;9.61;100.00
50933;BME280;36921;49.006;9.292;2022-09-12T02:12:00;98834.81;;;9.66;100.00
50933;BME280;36921;49.006;9.292;2022-09-12T02:14:29;98829.22;;;9.68;100.00
50933;BME280;36921;49.006;9.292;2022-09-12T02:17:18;98829.28;;;9.75;100.00
50933;BME280;36921;49.006;9.292;2022-09-12T02:19:49;98800.63;;;9.52;100.00
50933;BME280;36921;49.006;9.292;2022-09-12T02:22:19;98815.88;;;9.60;100.00
50933;BME280;36921;49.006;9.292;2022-09-12T02:24:49;98816.25;;;9.57;100.00
50933;BME280;36921;49.006;9.292;2022-09-12T02:27:23;98807.91;;;9.52;100.00
50933;BME280;36921;49.006;9.292;2022-09-12T02:29:50;98814.31;;;9.51;100.00
50933;BME280;36921;49.006;9.292;2022-09-12T02:35:00;98809.97;;;9.50;100.00
50933;BME280;36921;49.006;9.292;2022-09-12T02:40:08;98794.47;;;9.30;100.00
50933;BME280;36921;49.006;9.292;2022-09-12T02:42:34;98815.56;;;9.48;100.00
50933;BME280;36921;49.006;9.292;2022-09-12T02:45:00;98811.75;;;9.36;100.00
50933;BME280;36921;49.006;9.292;2022-09-12T02:47:42;98807.72;;;9.25;100.00
50933;BME280;36921;49.006;9.292;2022-09-12T02:50:09;98803.91;;;9.19;100.00
50933;BME280;36921;49.006;9.292;2022-09-12T02:52:35;98796.66;;;9.20;100.00
50933;BME280;36921;49.006;9.292;2022-09-12T02:55:02;98796.31;;;9.08;100.00
50933;BME280;36921;49.006;9.292;2022-09-12T02:57:29;98802.56;;;9.09;100.00
50933;BME280;36921;49.006;9.292;2022-09-12T02:59:57;98798.59;;;9.05;100.00
50933;BME280;36921;49.006;9.292;2022-09-12T03:05:24;98796.28;;;9.02;100.00
50933;BME280;36921;49.006;9.292;2022-09-12T03:08:13;98793.94;;;8.98;100.00
50933;BME280;36921;49.006;9.292;2022-09-12T03:11:03;98803.34;;;9.03;100.00
50933;BME280;36921;49.006;9.292;2022-09-12T03:16:09;98799.69;;;8.89;100.00
50933;BME280;36921;49.006;9.292;2022-09-12T03:19:15;98793.25;;;8.90;100.00
50933;BME280;36921;49.006;9.292;2022-09-12T03:24:10;98801.66;;;8.80;100.00
50933;BME280;36921;49.006;9.292;2022-09-12T03:26:55;98800.66;;;8.81;100.00
50933;BME280;36921;49.006;9.292;2022-09-12T03:29:24;98801.09;;;8.85;100.00
50933;BME280;36921;49.006;9.292;2022-09-12T03:31:53;98804.44;;;8.87;100.00
50933;BME280;36921;49.006;9.292;2022-09-12T03:34:20;98808.75;;;8.81;100.00
50933;BME280;36921;49.006;9.292;2022-09-12T03:36:46;98798.22;;;8.86;100.00
50933;BME280;36921;49.006;9.292;2022-09-12T03:39:11;98798.84;;;8.88;100.00
50933;BME280;36921;49.006;9.292;2022-09-12T03:41:37;98814.44;;;8.93;100.00
50933;BME280;36921;49.006;9.292;2022-09-12T03:44:03;98804.69;;;9.13;100.00
50933;BME280;36921;49.006;9.292;2022-09-12T03:46:28;98805.59;;;9.20;100.00
50933;BME280;36921;49.006;9.292;2022-09-12T03:48:54;98793.56;;;9.23;100.00
50933;BME280;36921;49.006;9.292;2022-09-12T03:51:19;98807.47;;;9.20;100.00
50933;BME280;36921;49.006;9.292;2022-09-12T03:53:45;98818.00;;;9.15;100.00
50933;BME280;36921;49.006;9.292;2022-09-12T03:56:11;98813.25;;;9.17;100.00
50933;BME280;36921;49.006;9.292;2022-09-12T03:58:37;98804.69;;;9.13;100.00
50933;BME280;36921;49.006;9.292;2022-09-12T04:01:10;98793.84;;;9.07;100.00
50933;BME280;36921;49.006;9.292;2022-09-12T04:03:47;98806.13;;;9.09;100.00
50933;BME280;36921;49.006;9.292;2022-09-12T04:06:16;98803.78;;;9.06;100.00
50933;BME280;36921;49.006;9.292;2022-09-12T04:08:42;98806.38;;;9.14;100.00
50933;BME280;36921;49.006;9.292;2022-09-12T04:11:12;98793.59;;;9.02;100.00
50933;BME280;36921;49.006;9.292;2022-09-12T04:13:39;98804.13;;;8.96;100.00
50933;BME280;36921;49.006;9.292;2022-09-12T04:16:05;98801.31;;;8.83;100.00
50933;BME280;36921;49.006;9.292;2022-09-12T04:18:32;98801.91;;;8.85;100.00
50933;BME280;36921;49.006;9.292;2022-09-12T04:20:58;98791.25;;;8.77;100.00
50933;BME280;36921;49.006;9.292;2022-09-12T04:23:23;98787.16;;;8.81;100.00
50933;BME280;36921;49.006;9.292;2022-09-12T04:25:56;98804.00;;;8.83;100.00
50933;BME280;36921;49.006;9.292;2022-09-12T04:28:22;98809.19;;;8.85;100.00
50933;BME280;36921;49.006;9.292;2022-09-12T04:30:48;98806.22;;;8.80;100.00
50933;BME280;36921;49.006;9.292;2022-09-12T04:33:13;98802.81;;;8.71;100.00
50933;BME280;36921;49.006;9.292;2022-09-12T04:35:39;98797.34;;;8.64;100.00
50933;BME280;36921;49.006;9.292;2022-09-12T04:38:05;98795.69;;;8.63;100.00
50933;BME280;36921;49.006;9.292;2022-09-12T04:40:31;98795.38;;;8.51;100.00
50933;BME280;36921;49.006;9.292;2022-09-12T04:42:57;98811.78;;;8.56;100.00
50933;BME280;36921;49.006;9.292;2022-09-12T04:45:23;98822.50;;;8.50;100.00
50933;BME280;36921;49.006;9.292;2022-09-12T04:47:48;98801.59;;;8.37;100.00
50933;BME280;36921;49.006;9.292;2022-09-12T04:50:13;98809.78;;;8.44;100.00
50933;BME280;36921;49.006;9.292;2022-09-12T04:52:40;98809.66;;;8.37;100.00
50933;BME280;36921;49.006;9.292;2022-09-12T04:55:06;98800.66;;;8.30;100.00
50933;BME280;36921;49.006;9.292;2022-09-12T04:57:31;98801.97;;;8.34;100.00
50933;BME280;36921;49.006;9.292;2022-09-12T04:59:57;98794.44;;;8.44;100.00
50933;BME280;36921;49.006;9.292;2022-09-12T05:02:23;98801.38;;;8.53;100.00
50933;BME280;36921;49.006;9.292;2022-09-12T05:04:48;98802.84;;;8.56;100.00
50933;BME280;36921;49.006;9.292;2022-09-12T05:07:14;98784.09;;;8.48;100.00
50933;BME280;36921;49.006;9.292;2022-09-12T05:09:39;98793.28;;;8.53;100.00
50933;BME280;36921;49.006;9.292;2022-09-12T05:12:05;98791.63;;;8.52;100.00
50933;BME280;36921;49.006;9.292;2022-09-12T05:14:32;98791.34;;;8.62;100.00
50933;BME280;36921;49.006;9.292;2022-09-12T05:16:57;98779.19;;;8.51;100.00
50933;BME280;36921;49.006;9.292;2022-09-12T05:19:26;98791.47;;;8.75;100.00
50933;BME280;36921;49.006;9.292;2022-09-12T05:21:51;98779.75;;;8.90;100.00
50933;BME280;36921;49.006;9.292;2022-09-12T05:24:16;98789.16;;;9.22;100.00
50933;BME280;36921;49.006;9.292;2022-09-12T05:26:42;98787.97;;;9.53;100.00
50933;BME280;36921;49.006;9.292;2022-09-12T05:29:07;98805.09;;;10.36;100.00
50933;BME280;36921;49.006;9.292;2022-09-12T05:31:32;98800.69;;;11.70;100.00
50933;BME280;36921;49.006;9.292;2022-09-12T05:33:58;98795.03;;;12.94;100.00
50933;BME280;36921;49.006;9.292;2022-09-12T05:36:26;98797.91;;;14.18;100.00
50933;BME280;36921;49.006;9.292;2022-09-12T05:38:53;98791.50;;;15.10;98.26
50933;BME280;36921;49.006;9.292;2022-09-12T05:41:20;98805.00;;;16.06;89.62
50933;BME280;36921;49.006;9.292;2022-09-12T05:43:50;98797.28;;;16.55;78.64
50933;BME280;36921;49.006;9.292;2022-09-12T05:46:18;98799.94;;;16.90;73.23
50933;BME280;36921;49.006;9.292;2022-09-12T05:48:45;98798.50;;;17.16;72.39
50933;BME280;36921;49.006;9.292;2022-09-12T05:51:16;98798.84;;;17.37;70.12
50933;BME280;36921;49.006;9.292;2022-09-12T05:53:44;98804.38;;;17.75;70.80
50933;BME280;36921;49.006;9.292;2022-09-12T05:56:12;98804.44;;;18.14;69.12
50933;BME280;36921;49.006;9.292;2022-09-12T05:58:40;98803.59;;;18.75;65.79
50933;BME280;36921;49.006;9.292;2022-09-12T06:01:11;98794.84;;;19.32;65.52
50933;BME280;36921;49.006;9.292;2022-09-12T06:06:12;98802.00;;;20.03;62.40
50933;BME280;36921;49.006;9.292;2022-09-12T06:08:40;98792.41;;;20.05;60.46
50933;BME280;36921;49.006;9.292;2022-09-12T06:11:06;98795.34;;;21.09;57.47
50933;BME280;36921;49.006;9.292;2022-09-12T06:13:36;98785.19;;;21.76;56.17
50933;BME280;36921;49.006;9.292;2022-09-12T06:16:07;98777.72;;;21.87;54.67
50933;BME280;36921;49.006;9.292;2022-09-12T06:18:34;98782.88;;;22.29;54.53
50933;BME280;36921;49.006;9.292;2022-09-12T06:21:04;98779.78;;;22.57;52.64
50933;BME280;36921;49.006;9.292;2022-09-12T06:23:30;98781.13;;;23.19;52.89
50933;BME280;36921;49.006;9.292;2022-09-12T06:25:56;98770.56;;;24.43;50.55
50933;BME280;36921;49.006;9.292;2022-09-12T06:28:21;98774.94;;;25.11;48.12
50933;BME280;36921;49.006;9.292;2022-09-12T06:30:47;98778.19;;;24.75;45.84
50933;BME280;36921;49.006;9.292;2022-09-12T06:33:13;98785.16;;;23.66;48.09
50933;BME280;36921;49.006;9.292;2022-09-12T06:35:38;98783.38;;;24.34;47.26
50933;BME280;36921;49.006;9.292;2022-09-12T06:38:04;98786.13;;;24.10;47.78
50933;BME280;36921;49.006;9.292;2022-09-12T06:40:30;98779.94;;;23.94;48.54
50933;BME280;36921;49.006;9.292;2022-09-12T06:42:55;98783.84;;;24.41;48.20
50933;BME280;36921;49.006;9.292;2022-09-12T06:45:21;98767.16;;;25.32;46.56
50933;BME280;36921;49.006;9.292;2022-09-12T06:47:46;98773.16;;;26.18;45.06
50933;BME280;36921;49.006;9.292;2022-09-12T06:50:12;98774.09;;;26.41;43.46
50933;BME280;36921;49.006;9.292;2022-09-12T06:52:37;98774.31;;;27.45;42.40
50933;BME280;36921;49.006;9.292;2022-09-12T06:55:03;98782.19;;;27.29;41.76
50933;BME280;36921;49.006;9.292;2022-09-12T06:57:30;98776.75;;;27.92;40.36
50933;BME280;36921;49.006;9.292;2022-09-12T06:59:56;98775.59;;;28.55;40.07
50933;BME280;36921;49.006;9.292;2022-09-12T07:02:22;98774.84;;;28.81;38.88
50933;BME280;36921;49.006;9.292;2022-09-12T07:04:49;98771.63;;;29.14;38.46
50933;BME280;36921;49.006;9.292;2022-09-12T07:07:16;98784.91;;;29.34;37.45
50933;BME280;36921;49.006;9.292;2022-09-12T07:09:41;98778.78;;;28.80;38.46
50933;BME280;36921;49.006;9.292;2022-09-12T07:12:06;98777.22;;;29.66;37.53
50933;BME280;36921;49.006;9.292;2022-09-12T07:14:32;98768.53;;;29.33;37.39
50933;BME280;36921;49.006;9.292;2022-09-12T07:16:57;98773.53;;;29.91;36.92
50933;BME280;36921;49.006;9.292;2022-09-12T07:19:22;98770.53;;;30.14;36.13
50933;BME280;36921;49.006;9.292;2022-09-12T07:21:48;98776.09;;;30.91;35.58
50933;BME280;36921;49.006;9.292;2022-09-12T07:24:14;98768.25;;;30.75;35.33
50933;BME280;36921;49.006;9.292;2022-09-12T07:26:39;98768.34;;;29.12;38.23
50933;BME280;36921;49.006;9.292;2022-09-12T07:29:06;98765.06;;;29.79;37.31
50933;BME280;36921;49.006;9.292;2022-09-12T07:31:36;98774.13;;;30.14;37.15
50933;BME280;36921;49.006;9.292;2022-09-12T07:34:04;98775.16;;;31.08;35.96
50933;BME280;36921;49.006;9.292;2022-09-12T07:36:30;98771.53;;;31.82;34.87
50933;BME280;36921;49.006;9.292;2022-09-12T07:38:56;98766.84;;;32.07;34.35
50933;BME280;36921;49.006;9.292;2022-09-12T07:41:24;98767.13;;;32.88;33.52
50933;BME280;36921;49.006;9.292;2022-09-12T07:43:50;98770.91;;;31.22;36.89
50933;BME280;36921;49.006;9.292;2022-09-12T07:46:16;98768.72;;;31.07;36.41
50933;BME280;36921;49.006;9.292;2022-09-12T07:48:42;98766.09;;;31.86;35.26
50933;BME280;36921;49.006;9.292;2022-09-12T07:51:09;98769.06;;;31.69;35.32
50933;BME280;36921;49.006;9.292;2022-09-12T07:53:39;98772.56;;;31.23;35.47
50933;BME280;36921;49.006;9.292;2022-09-12T07:56:06;98770.94;;;32.22;34.40
50933;BME280;36921;49.006;9.292;2022-09-12T07:58:33;98770.47;;;31.75;35.24
50933;BME280;36921;49.006;9.292;2022-09-12T08:01:13;98768.56;;;30.53;37.13
50933;BME280;36921;49.006;9.292;2022-09-12T08:03:43;98764.97;;;29.97;38.06
50933;BME280;36921;49.006;9.292;2022-09-12T08:06:14;98775.28;;;31.53;34.72
50933;BME280;36921;49.006;9.292;2022-09-12T08:08:40;98776.50;;;31.22;36.38
50933;BME280;36921;49.006;9.292;2022-09-12T08:11:11;98782.44;;;31.96;34.53
50933;BME280;36921;49.006;9.292;2022-09-12T08:13:38;98783.91;;;29.74;38.49
50933;BME280;36921;49.006;9.292;2022-09-12T08:16:07;98787.53;;;29.48;38.54
50933;BME280;36921;49.006;9.292;2022-09-12T08:18:34;98774.66;;;29.99;38.02
50933;BME280;36921;49.006;9.292;2022-09-12T08:21:05;98774.72;;;30.67;36.79
50933;BME280;36921;49.006;9.292;2022-09-12T08:23:31;98776.50;;;30.72;36.40
50933;BME280;36921;49.006;9.292;2022-09-12T08:25:57;98770.56;;;30.44;36.70
50933;BME280;36921;49.006;9.292;2022-09-12T08:28:24;98770.75;;;30.39;37.29
50933;BME280;36921;49.006;9.292;2022-09-12T08:30:50;98770.25;;;31.47;35.54
50933;BME280;36921;49.006;9.292;2022-09-12T08:33:15;98766.09;;;31.86;35.59
50933;BME280;36921;49.006;9.292;2022-09-12T08:35:40;98763.69;;;31.97;34.60
50933;BME280;36921;49.006;9.292;2022-09-12T08:38:06;98756.84;;;32.19;35.19
50933;BME280;36921;49.006;9.292;2022-09-12T08:40:32;98765.22;;;32.19;34.73
50933;BME280;36921;49.006;9.292;2022-09-12T08:46:03;98760.31;;;33.54;32.57
50933;BME280;36921;49.006;9.292;2022-09-12T08:48:29;98762.81;;;33.88;31.93
50933;BME280;36921;49.006;9.292;2022-09-12T08:50:55;98756.13;;;33.08;33.25
50933;BME280;36921;49.006;9.292;2022-09-12T08:53:23;98745.03;;;33.96;31.68
50933;BME280;36921;49.006;9.292;2022-09-12T08:55:52;98756.03;;;33.04;33.94
50933;BME280;36921;49.006;9.292;2022-09-12T08:58:21;98746.56;;;32.72;33.67
50933;BME280;36921;49.006;9.292;2022-09-12T09:01:07;98747.22;;;33.74;32.49
50933;BME280;36921;49.006;9.292;2022-09-12T09:14:23;98737.03;;;35.12;30.71
50933;BME280;36921;49.006;9.292;2022-09-12T09:17:14;98735.16;;;34.65;31.13
50933;BME280;36921;49.006;9.292;2022-09-12T09:20:33;98728.09;;;34.08;31.63
50933;BME280;36921;49.006;9.292;2022-09-12T09:25:36;98732.66;;;35.96;28.93
50933;BME280;36921;49.006;9.292;2022-09-12T09:28:20;98724.28;;;35.19;30.32
50933;BME280;36921;49.006;9.292;2022-09-12T09:30:46;98729.94;;;33.16;32.33
50933;BME280;36921;49.006;9.292;2022-09-12T09:33:23;98729.41;;;35.71;28.90
50933;BME280;36921;49.006;9.292;2022-09-12T09:36:16;98727.63;;;34.69;30.13
50933;BME280;36921;49.006;9.292;2022-09-12T09:38:49;98733.34;;;35.28;29.57
50933;BME280;36921;49.006;9.292;2022-09-12T09:44:00;98716.78;;;34.20;30.45
50933;BME280;36921;49.006;9.292;2022-09-12T09:46:26;98722.47;;;34.72;30.69
50933;BME280;36921;49.006;9.292;2022-09-12T09:48:53;98721.28;;;35.66;29.50
50933;BME280;36921;49.006;9.292;2022-09-12T09:51:25;98723.38;;;36.65;27.35
50933;BME280;36921;49.006;9.292;2022-09-12T09:57:01;98716.75;;;36.54;27.40
50933;BME280;36921;49.006;9.292;2022-09-12T09:59:32;98719.81;;;36.18;26.87
50933;BME280;36921;49.006;9.292;2022-09-12T10:01:59;98721.19;;;35.43;27.04
50933;BME280;36921;49.006;9.292;2022-09-12T10:04:33;98724.81;;;35.44;26.96
50933;BME280;36921;49.006;9.292;2022-09-12T10:07:01;98718.28;;;34.02;28.63
50933;BME280;36921;49.006;9.292;2022-09-12T10:09:30;98723.34;;;33.52;28.78
50933;BME280;36921;49.006;9.292;2022-09-12T10:12:01;98731.72;;;33.08;29.86
50933;BME280;36921;49.006;9.292;2022-09-12T10:14:55;98709.88;;;32.49;30.07
50933;BME280;36921;49.006;9.292;2022-09-12T10:19:53;98696.13;;;33.53;29.21
50933;BME280;36921;49.006;9.292;2022-09-12T10:22:20;98705.25;;;34.57;27.12
50933;BME280;36921;49.006;9.292;2022-09-12T10:24:50;98703.16;;;34.54;28.03
50933;BME280;36921;49.006;9.292;2022-09-12T10:27:24;98698.19;;;34.00;28.23
50933;BME280;36921;49.006;9.292;2022-09-12T10:34:59;98711.50;;;35.21;26.47
50933;BME280;36921;49.006;9.292;2022-09-12T10:37:32;98689.00;;;33.27;27.28
50933;BME280;36921;49.006;9.292;2022-09-12T10:39:58;98704.53;;;31.86;29.54
50933;BME280;36921;49.006;9.292;2022-09-12T10:47:52;98698.78;;;33.33;28.55
50933;BME280;36921;49.006;9.292;2022-09-12T10:50:30;98694.50;;;33.24;28.77
50933;BME280;36921;49.006;9.292;2022-09-12T10:53:31;98690.28;;;32.89;29.39
50933;BME280;36921;49.006;9.292;2022-09-12T10:56:04;98693.66;;;33.79;29.10
50933;BME280;36921;49.006;9.292;2022-09-12T11:01:35;98683.72;;;34.14;28.40
50933;BME280;36921;49.006;9.292;2022-09-12T11:04:13;98683.16;;;35.10;27.19
50933;BME280;36921;49.006;9.292;2022-09-12T11:07:01;98686.56;;;35.20;26.04
50933;BME280;36921;49.006;9.292;2022-09-12T11:12:42;98665.25;;;33.53;28.08
50933;BME280;36921;49.006;9.292;2022-09-12T11:15:30;98671.13;;;34.08;27.22
50933;BME280;36921;49.006;9.292;2022-09-12T11:18:09;98661.34;;;35.46;26.41
50933;BME280;36921;49.006;9.292;2022-09-12T11:33:55;98647.03;;;33.75;27.66
50933;BME280;36921;49.006;9.292;2022-09-12T11:39:43;98642.47;;;34.34;27.95
50933;BME280;36921;49.006;9.292;2022-09-12T11:42:23;98643.25;;;36.13;23.92
50933;BME280;36921;49.006;9.292;2022-09-12T11:45:00;98637.44;;;35.14;24.85
50933;BME280;36921;49.006;9.292;2022-09-12T11:47:28;98638.94;;;35.96;24.33
50933;BME280;36921;49.006;9.292;2022-09-12T11:49:58;98621.16;;;35.92;24.57
50933;BME280;36921;49.006;9.292;2022-09-12T11:52:28;98621.63;;;36.47;24.05
50933;BME280;36921;49.006;9.292;2022-09-12T11:57:48;98621.56;;;36.13;23.88
50933;BME280;36921;49.006;9.292;2022-09-12T12:00:17;98614.00;;;35.71;23.52
50933;BME280;36921;49.006;9.292;2022-09-12T12:05:27;98625.19;;;35.68;23.38
50933;BME280;36921;49.006;9.292;2022-09-12T12:07:59;98610.31;;;36.43;23.43
50933;BME280;36921;49.006;9.292;2022-09-12T12:10:35;98614.28;;;36.66;22.76
50933;BME280;36921;49.006;9.292;2022-09-12T12:13:13;98609.16;;;36.75;22.84
50933;BME280;36921;49.006;9.292;2022-09-12T12:15:50;98601.00;;;36.66;23.70
50933;BME280;36921;49.006;9.292;2022-09-12T12:18:36;98605.66;;;37.56;22.64
50933;BME280;36921;49.006;9.292;2022-09-12T12:29:08;98596.00;;;35.33;24.12
50933;BME280;36921;49.006;9.292;2022-09-12T12:34:38;98579.78;;;35.92;23.34
50933;BME280;36921;49.006;9.292;2022-09-12T12:44:58;98595.00;;;33.77;25.40
50933;BME280;36921;49.006;9.292;2022-09-12T12:47:31;98588.44;;;33.42;25.93
50933;BME280;36921;49.006;9.292;2022-09-12T12:53:03;98585.56;;;34.37;25.23
50933;BME280;36921;49.006;9.292;2022-09-12T12:55:34;98579.50;;;34.70;24.82
50933;BME280;36921;49.006;9.292;2022-09-12T12:58:04;98571.25;;;35.20;23.75
50933;BME280;36921;49.006;9.292;2022-09-12T13:00:38;98578.44;;;33.56;25.22
50933;BME280;36921;49.006;9.292;2022-09-12T13:05:55;98559.16;;;36.41;22.81
50933;BME280;36921;49.006;9.292;2022-09-12T13:08:29;98555.16;;;37.06;21.13
50933;BME280;36921;49.006;9.292;2022-09-12T13:11:00;98547.72;;;36.27;22.42
50933;BME280;36921;49.006;9.292;2022-09-12T13:13:37;98550.53;;;35.74;23.01
50933;BME280;36921;49.006;9.292;2022-09-12T13:16:05;98549.94;;;35.88;22.75
50933;BME280;36921;49.006;9.292;2022-09-12T13:18:42;98550.47;;;36.54;22.66
50933;BME280;36921;49.006;9.292;2022-09-12T13:21:16;98550.56;;;35.08;24.95
50933;BME280;36921;49.006;9.292;2022-09-12T13:23:43;98554.31;;;34.97;24.64
50933;BME280;36921;49.006;9.292;2022-09-12T13:26:20;98544.97;;;35.81;23.73
50933;BME280;36921;49.006;9.292;2022-09-12T13:28:46;98538.81;;;35.72;23.63
50933;BME280;36921;49.006;9.292;2022-09-12T13:31:25;98531.03;;;36.15;23.88
50933;BME280;36921;49.006;9.292;2022-09-12T13:33:57;98521.41;;;36.80;22.22
50933;BME280;36921;49.006;9.292;2022-09-12T13:39:37;98530.75;;;34.62;22.95
50933;BME280;36921;49.006;9.292;2022-09-12T13:45:10;98507.53;;;34.65;23.19
50933;BME280;36921;49.006;9.292;2022-09-12T13:47:45;98510.47;;;34.53;23.10
50933;BME280;36921;49.006;9.292;2022-09-12T13:50:17;98514.66;;;34.24;23.33
50933;BME280;36921;49.006;9.292;2022-09-12T13:52:47;98513.72;;;35.63;22.49
50933;BME280;36921;49.006;9.292;2022-09-12T13:55:38;98507.66;;;36.11;23.06
50933;BME280;36921;49.006;9.292;2022-09-12T13:58:25;98500.31;;;36.06;22.43
50933;BME280;36921;49.006;9.292;2022-09-12T14:01:09;98504.00;;;36.40;21.97
50933;BME280;36921;49.006;9.292;2022-09-12T14:03:42;98496.06;;;36.50;21.93
50933;BME280;36921;49.006;9.292;2022-09-12T14:06:49;98495.69;;;35.18;23.08
50933;BME280;36921;49.006;9.292;2022-09-12T14:09:21;98485.06;;;34.46;23.85
50933;BME280;36921;49.006;9.292;2022-09-12T14:11:47;98495.66;;;33.82;23.80
50933;BME280;36921;49.006;9.292;2022-09-12T14:14:30;98491.63;;;33.48;24.07
50933;BME280;36921;49.006;9.292;2022-09-12T14:16:57;98488.44;;;32.86;24.81
50933;BME280;36921;49.006;9.292;2022-09-12T14:19:23;98487.63;;;33.80;23.55
50933;BME280;36921;49.006;9.292;2022-09-12T14:21:54;98483.91;;;32.81;24.74
50933;BME280;36921;49.006;9.292;2022-09-12T14:24:20;98469.41;;;33.23;24.55
50933;BME280;36921;49.006;9.292;2022-09-12T14:26:50;98480.66;;;33.74;24.14
50933;BME280;36921;49.006;9.292;2022-09-12T14:29:17;98487.28;;;33.34;24.29
50933;BME280;36921;49.006;9.292;2022-09-12T14:31:43;98484.25;;;32.95;24.07
50933;BME280;36921;49.006;9.292;2022-09-12T14:36:45;98483.09;;;34.11;24.20
50933;BME280;36921;49.006;9.292;2022-09-12T14:39:27;98481.00;;;34.43;24.22
50933;BME280;36921;49.006;9.292;2022-09-12T14:42:15;98483.69;;;34.40;23.15
50933;BME280;36921;49.006;9.292;2022-09-12T14:44:55;98479.94;;;34.71;23.19
50933;BME280;36921;49.006;9.292;2022-09-12T14:47:23;98467.16;;;34.35;23.59
50933;BME280;36921;49.006;9.292;2022-09-12T14:49:50;98475.38;;;34.43;23.87
50933;BME280;36921;49.006;9.292;2022-09-12T14:52:27;98460.34;;;34.55;23.65
50933;BME280;36921;49.006;9.292;2022-09-12T14:57:41;98467.28;;;33.52;24.55
50933;BME280;36921;49.006;9.292;2022-09-12T15:00:16;98464.06;;;33.34;24.00
50933;BME280;36921;49.006;9.292;2022-09-12T15:02:46;98463.31;;;32.33;25.58
50933;BME280;36921;49.006;9.292;2022-09-12T15:07:59;98461.41;;;32.49;25.89
50933;BME280;36921;49.006;9.292;2022-09-12T15:10:26;98455.63;;;31.90;26.28
50933;BME280;36921;49.006;9.292;2022-09-12T15:15:32;98445.16;;;32.27;26.90
50933;BME280;36921;49.006;9.292;2022-09-12T15:17:57;98453.41;;;31.95;26.73
50933;BME280;36921;49.006;9.292;2022-09-12T15:20:23;98446.06;;;32.31;25.92
50933;BME280;36921;49.006;9.292;2022-09-12T15:22:49;98443.56;;;31.61;26.59
50933;BME280;36921;49.006;9.292;2022-09-12T15:25:15;98442.34;;;31.86;26.41
50933;BME280;36921;49.006;9.292;2022-09-12T15:27:40;98440.94;;;31.80;26.69
50933;BME280;36921;49.006;9.292;2022-09-12T15:30:10;98429.91;;;31.59;27.06
50933;BME280;36921;49.006;9.292;2022-09-12T15:32:38;98424.78;;;31.61;26.50
50933;BME280;36921;49.006;9.292;2022-09-12T15:37:42;98437.13;;;32.53;26.25
50933;BME280;36921;49.006;9.292;2022-09-12T15:40:08;98431.50;;;31.97;26.67